sensor_id;sensor_type;location;lat;lon;timestamp;pressure;altitude;pressure_sealevel;temperature
19644;BMP180;9970;-36.854;174.870;2023-04-24T00:01:41;101088.00;;;17.00
19644;BMP180;9970;-36.854;174.870;2023-04-24T00:04:14;101084.00;;;17.00
19644;BMP180;9970;-36.854;174.870;2023-04-24T00:06:48;101088.00;;;17.00
19644;BMP180;9970;-36.854;174.870;2023-04-24T00:09:22;101096.00;;;17.00
19644;BMP180;9970;-36.854;174.870;2023-04-24T00:11:55;101108.00;;;16.90
19644;BMP180;9970;-36.854;174.870;2023-04-24T00:14:28;101104.00;;;16.90
19644;BMP180;9970;-36.854;174.870;2023-04-24T00:17:01;101103.00;;;16.90
19644;BMP180;9970;-36.854;174.870;2023-04-24T00:19:34;101111.00;;;16.90
19644;BMP180;9970;-36.854;174.870;2023-04-24T00:22:07;101090.00;;;16.90
19644;BMP180;9970;-36.854;174.870;2023-04-24T00:24:39;101094.00;;;16.90
19644;BMP180;9970;-36.854;174.870;2023-04-24T00:27:12;101101.00;;;16.90
19644;BMP180;9970;-36.854;174.870;2023-04-24T00:29:45;101093.00;;;16.90
19644;BMP180;9970;-36.854;174.870;2023-04-24T00:32:18;101094.00;;;16.90
19644;BMP180;9970;-36.854;174.870;2023-04-24T00:34:51;101109.00;;;16.90
19644;BMP180;9970;-36.854;174.870;2023-04-24T00:37:24;101118.00;;;16.90
19644;BMP180;9970;-36.854;174.870;2023-04-24T00:39:57;101104.00;;;16.90
19644;BMP180;9970;-36.854;174.870;2023-04-24T00:42:34;101109.00;;;16.90
19644;BMP180;9970;-36.854;174.870;2023-04-24T00:45:07;101108.00;;;16.90
19644;BMP180;9970;-36.854;174.870;2023-04-24T00:47:41;101106.00;;;16.80
19644;BMP180;9970;-36.854;174.870;2023-04-24T00:50:15;101105.00;;;16.90
19644;BMP180;9970;-36.854;174.870;2023-04-24T00:52:48;101114.00;;;16.80
19644;BMP180;9970;-36.854;174.870;2023-04-24T00:55:21;101126.00;;;16.80
19644;BMP180;9970;-36.854;174.870;2023-04-24T00:57:54;101126.00;;;16.70
19644;BMP180;9970;-36.854;174.870;2023-04-24T01:00:27;101114.00;;;16.70
19644;BMP180;9970;-36.854;174.870;2023-04-24T01:03:06;101105.00;;;16.70
19644;BMP180;9970;-36.854;174.870;2023-04-24T01:05:39;101111.00;;;16.70
19644;BMP180;9970;-36.854;174.870;2023-04-24T01:08:13;101109.00;;;16.70
19644;BMP180;9970;-36.854;174.870;2023-04-24T01:10:47;101106.00;;;16.70
19644;BMP180;9970;-36.854;174.870;2023-04-24T01:13:21;101094.00;;;16.70
19644;BMP180;9970;-36.854;174.870;2023-04-24T01:15:54;101119.00;;;16.70
19644;BMP180;9970;-36.854;174.870;2023-04-24T01:18:27;101127.00;;;16.70
19644;BMP180;9970;-36.854;174.870;2023-04-24T01:21:01;101118.00;;;16.70
19644;BMP180;9970;-36.854;174.870;2023-04-24T01:23:35;101128.00;;;16.70
19644;BMP180;9970;-36.854;174.870;2023-04-24T01:26:08;101130.00;;;16.70
19644;BMP180;9970;-36.854;174.870;2023-04-24T01:28:41;101119.00;;;16.70
19644;BMP180;9970;-36.854;174.870;2023-04-24T01:31:18;101115.00;;;16.70
19644;BMP180;9970;-36.854;174.870;2023-04-24T01:33:52;101114.00;;;16.70
19644;BMP180;9970;-36.854;174.870;2023-04-24T01:36:25;101117.00;;;16.70
19644;BMP180;9970;-36.854;174.870;2023-04-24T01:39:00;101110.00;;;16.60
19644;BMP180;9970;-36.854;174.870;2023-04-24T01:41:33;101101.00;;;16.70
19644;BMP180;9970;-36.854;174.870;2023-04-24T01:44:06;101111.00;;;16.70
19644;BMP180;9970;-36.854;174.870;2023-04-24T01:46:39;101116.00;;;16.70
19644;BMP180;9970;-36.854;174.870;2023-04-24T01:49:16;101116.00;;;16.60
19644;BMP180;9970;-36.854;174.870;2023-04-24T01:51:49;101104.00;;;16.60
19644;BMP180;9970;-36.854;174.870;2023-04-24T01:54:22;101101.00;;;16.60
19644;BMP180;9970;-36.854;174.870;2023-04-24T01:56:55;101113.00;;;16.60
19644;BMP180;9970;-36.854;174.870;2023-04-24T01:59:29;101114.00;;;16.60
19644;BMP180;9970;-36.854;174.870;2023-04-24T02:02:02;101115.00;;;16.60
19644;BMP180;9970;-36.854;174.870;2023-04-24T02:04:35;101113.00;;;16.50
19644;BMP180;9970;-36.854;174.870;2023-04-24T02:07:08;101103.00;;;16.50
19644;BMP180;9970;-36.854;174.870;2023-04-24T02:09:45;101111.00;;;16.50
19644;BMP180;9970;-36.854;174.870;2023-04-24T02:12:18;101105.00;;;16.50
19644;BMP180;9970;-36.854;174.870;2023-04-24T02:14:51;101113.00;;;16.50
19644;BMP180;9970;-36.854;174.870;2023-04-24T02:17:24;101122.00;;;16.50
19644;BMP180;9970;-36.854;174.870;2023-04-24T02:19:57;101136.00;;;16.50
19644;BMP180;9970;-36.854;174.870;2023-04-24T02:22:30;101125.00;;;16.50
19644;BMP180;9970;-36.854;174.870;2023-04-24T02:25:03;101128.00;;;16.50
19644;BMP180;9970;-36.854;174.870;2023-04-24T02:27:36;101131.00;;;16.50
19644;BMP180;9970;-36.854;174.870;2023-04-24T02:30:09;101135.00;;;16.50
19644;BMP180;9970;-36.854;174.870;2023-04-24T02:32:42;101132.00;;;16.50
19644;BMP180;9970;-36.854;174.870;2023-04-24T02:35:15;101137.00;;;16.40
19644;BMP180;9970;-36.854;174.870;2023-04-24T02:37:48;101134.00;;;16.40
19644;BMP180;9970;-36.854;174.870;2023-04-24T02:40:21;101144.00;;;16.40
19644;BMP180;9970;-36.854;174.870;2023-04-24T02:42:54;101143.00;;;16.40
19644;BMP180;9970;-36.854;174.870;2023-04-24T02:45:27;101142.00;;;16.50
19644;BMP180;9970;-36.854;174.870;2023-04-24T02:48:00;101147.00;;;16.50
19644;BMP180;9970;-36.854;174.870;2023-04-24T02:50:33;101143.00;;;16.50
19644;BMP180;9970;-36.854;174.870;2023-04-24T02:53:10;101141.00;;;16.50
19644;BMP180;9970;-36.854;174.870;2023-04-24T02:55:43;101149.00;;;16.40
19644;BMP180;9970;-36.854;174.870;2023-04-24T02:58:17;101149.00;;;16.40
19644;BMP180;9970;-36.854;174.870;2023-04-24T03:00:54;101149.00;;;16.40
19644;BMP180;9970;-36.854;174.870;2023-04-24T03:03:27;101155.00;;;16.40
19644;BMP180;9970;-36.854;174.870;2023-04-24T03:06:01;101153.00;;;16.40
19644;BMP180;9970;-36.854;174.870;2023-04-24T03:08:33;101150.00;;;16.40
19644;BMP180;9970;-36.854;174.870;2023-04-24T03:11:06;101153.00;;;16.40
19644;BMP180;9970;-36.854;174.870;2023-04-24T03:13:39;101153.00;;;16.40
19644;BMP180;9970;-36.854;174.870;2023-04-24T03:16:12;101158.00;;;16.30
19644;BMP180;9970;-36.854;174.870;2023-04-24T03:18:45;101172.00;;;16.30
19644;BMP180;9970;-36.854;174.870;2023-04-24T03:21:22;101164.00;;;16.30
19644;BMP180;9970;-36.854;174.870;2023-04-24T03:23:55;101166.00;;;16.30
19644;BMP180;9970;-36.854;174.870;2023-04-24T03:26:28;101171.00;;;16.30
19644;BMP180;9970;-36.854;174.870;2023-04-24T03:29:01;101183.00;;;16.20
19644;BMP180;9970;-36.854;174.870;2023-04-24T03:31:34;101174.00;;;16.20
19644;BMP180;9970;-36.854;174.870;2023-04-24T03:34:07;101185.00;;;16.20
19644;BMP180;9970;-36.854;174.870;2023-04-24T03:36:40;101182.00;;;16.20
19644;BMP180;9970;-36.854;174.870;2023-04-24T03:39:13;101193.00;;;16.20
19644;BMP180;9970;-36.854;174.870;2023-04-24T03:41:47;101193.00;;;16.20
19644;BMP180;9970;-36.854;174.870;2023-04-24T03:44:19;101194.00;;;16.10
19644;BMP180;9970;-36.854;174.870;2023-04-24T03:46:52;101196.00;;;16.10
19644;BMP180;9970;-36.854;174.870;2023-04-24T03:49:25;101191.00;;;16.10
19644;BMP180;9970;-36.854;174.870;2023-04-24T03:51:58;101188.00;;;16.10
19644;BMP180;9970;-36.854;174.870;2023-04-24T03:54:31;101200.00;;;16.10
19644;BMP180;9970;-36.854;174.870;2023-04-24T03:57:04;101205.00;;;16.10
19644;BMP180;9970;-36.854;174.870;2023-04-24T03:59:37;101204.00;;;16.10
19644;BMP180;9970;-36.854;174.870;2023-04-24T04:02:10;101207.00;;;16.10
19644;BMP180;9970;-36.854;174.870;2023-04-24T04:04:43;101213.00;;;16.00
19644;BMP180;9970;-36.854;174.870;2023-04-24T04:07:16;101202.00;;;16.00
19644;BMP180;9970;-36.854;174.870;2023-04-24T04:09:49;101206.00;;;16.00
19644;BMP180;9970;-36.854;174.870;2023-04-24T04:12:22;101209.00;;;16.00
19644;BMP180;9970;-36.854;174.870;2023-04-24T04:14:55;101216.00;;;16.00
19644;BMP180;9970;-36.854;174.870;2023-04-24T04:17:28;101213.00;;;16.00
19644;BMP180;9970;-36.854;174.870;2023-04-24T04:20:01;101216.00;;;16.00
19644;BMP180;9970;-36.854;174.870;2023-04-24T04:22:35;101221.00;;;16.00
19644;BMP180;9970;-36.854;174.870;2023-04-24T04:25:09;101229.00;;;16.00
19644;BMP180;9970;-36.854;174.870;2023-04-24T04:27:44;101226.00;;;15.90
19644;BMP180;9970;-36.854;174.870;2023-04-24T04:30:18;101226.00;;;15.90
19644;BMP180;9970;-36.854;174.870;2023-04-24T04:32:51;101229.00;;;15.90
19644;BMP180;9970;-36.854;174.870;2023-04-24T04:35:24;101229.00;;;15.90
19644;BMP180;9970;-36.854;174.870;2023-04-24T04:37:57;101237.00;;;15.90
19644;BMP180;9970;-36.854;174.870;2023-04-24T04:40:30;101235.00;;;15.90
19644;BMP180;9970;-36.854;174.870;2023-04-24T04:43:03;101246.00;;;15.90
19644;BMP180;9970;-36.854;174.870;2023-04-24T04:45:37;101229.00;;;15.80
19644;BMP180;9970;-36.854;174.870;2023-04-24T04:48:11;101244.00;;;15.80
19644;BMP180;9970;-36.854;174.870;2023-04-24T04:50:44;101248.00;;;15.80
19644;BMP180;9970;-36.854;174.870;2023-04-24T04:53:17;101242.00;;;15.80
19644;BMP180;9970;-36.854;174.870;2023-04-24T04:55:50;101239.00;;;15.80
19644;BMP180;9970;-36.854;174.870;2023-04-24T04:58:23;101259.00;;;15.80
19644;BMP180;9970;-36.854;174.870;2023-04-24T05:00:56;101263.00;;;15.80
19644;BMP180;9970;-36.854;174.870;2023-04-24T05:03:29;101266.00;;;15.80
19644;BMP180;9970;-36.854;174.870;2023-04-24T05:06:02;101260.00;;;15.80
19644;BMP180;9970;-36.854;174.870;2023-04-24T05:08:34;101261.00;;;15.70
19644;BMP180;9970;-36.854;174.870;2023-04-24T05:11:07;101267.00;;;15.70
19644;BMP180;9970;-36.854;174.870;2023-04-24T05:13:41;101268.00;;;15.70
19644;BMP180;9970;-36.854;174.870;2023-04-24T05:16:13;101270.00;;;15.70
19644;BMP180;9970;-36.854;174.870;2023-04-24T05:18:46;101272.00;;;15.70
19644;BMP180;9970;-36.854;174.870;2023-04-24T05:21:19;101267.00;;;15.70
19644;BMP180;9970;-36.854;174.870;2023-04-24T05:23:52;101261.00;;;15.60
19644;BMP180;9970;-36.854;174.870;2023-04-24T05:26:25;101275.00;;;15.60
19644;BMP180;9970;-36.854;174.870;2023-04-24T05:28:58;101275.00;;;15.60
19644;BMP180;9970;-36.854;174.870;2023-04-24T05:31:31;101291.00;;;15.60
19644;BMP180;9970;-36.854;174.870;2023-04-24T05:34:04;101284.00;;;15.60
19644;BMP180;9970;-36.854;174.870;2023-04-24T05:36:37;101284.00;;;15.60
19644;BMP180;9970;-36.854;174.870;2023-04-24T05:39:10;101290.00;;;15.60
19644;BMP180;9970;-36.854;174.870;2023-04-24T05:41:43;101289.00;;;15.60
19644;BMP180;9970;-36.854;174.870;2023-04-24T05:44:16;101294.00;;;15.60
19644;BMP180;9970;-36.854;174.870;2023-04-24T05:46:50;101293.00;;;15.60
19644;BMP180;9970;-36.854;174.870;2023-04-24T05:49:23;101289.00;;;15.60
19644;BMP180;9970;-36.854;174.870;2023-04-24T05:51:56;101300.00;;;15.50
19644;BMP180;9970;-36.854;174.870;2023-04-24T05:54:29;101295.00;;;15.50
19644;BMP180;9970;-36.854;174.870;2023-04-24T05:57:02;101306.00;;;15.50
19644;BMP180;9970;-36.854;174.870;2023-04-24T05:59:37;101301.00;;;15.50
19644;BMP180;9970;-36.854;174.870;2023-04-24T06:02:11;101319.00;;;15.50
19644;BMP180;9970;-36.854;174.870;2023-04-24T06:04:44;101313.00;;;15.50
19644;BMP180;9970;-36.854;174.870;2023-04-24T06:07:19;101328.00;;;15.50
19644;BMP180;9970;-36.854;174.870;2023-04-24T06:09:52;101328.00;;;15.50
19644;BMP180;9970;-36.854;174.870;2023-04-24T06:12:26;101337.00;;;15.50
19644;BMP180;9970;-36.854;174.870;2023-04-24T06:15:02;101328.00;;;15.50
19644;BMP180;9970;-36.854;174.870;2023-04-24T06:17:35;101332.00;;;15.50
19644;BMP180;9970;-36.854;174.870;2023-04-24T06:20:08;101337.00;;;15.50
19644;BMP180;9970;-36.854;174.870;2023-04-24T06:22:44;101350.00;;;15.50
19644;BMP180;9970;-36.854;174.870;2023-04-24T06:25:17;101356.00;;;15.50
19644;BMP180;9970;-36.854;174.870;2023-04-24T06:27:50;101356.00;;;15.50
19644;BMP180;9970;-36.854;174.870;2023-04-24T06:30:23;101355.00;;;15.50
19644;BMP180;9970;-36.854;174.870;2023-04-24T06:32:56;101356.00;;;15.50
19644;BMP180;9970;-36.854;174.870;2023-04-24T06:35:30;101369.00;;;15.50
19644;BMP180;9970;-36.854;174.870;2023-04-24T06:38:03;101380.00;;;15.50
19644;BMP180;9970;-36.854;174.870;2023-04-24T06:40:36;101380.00;;;15.40
19644;BMP180;9970;-36.854;174.870;2023-04-24T06:43:10;101388.00;;;15.50
19644;BMP180;9970;-36.854;174.870;2023-04-24T06:45:43;101389.00;;;15.40
19644;BMP180;9970;-36.854;174.870;2023-04-24T06:48:16;101396.00;;;15.50
19644;BMP180;9970;-36.854;174.870;2023-04-24T06:50:49;101405.00;;;15.50
19644;BMP180;9970;-36.854;174.870;2023-04-24T06:53:21;101405.00;;;15.50
19644;BMP180;9970;-36.854;174.870;2023-04-24T06:55:54;101409.00;;;15.50
19644;BMP180;9970;-36.854;174.870;2023-04-24T06:58:28;101415.00;;;15.50
19644;BMP180;9970;-36.854;174.870;2023-04-24T07:01:01;101425.00;;;15.40
19644;BMP180;9970;-36.854;174.870;2023-04-24T07:03:34;101417.00;;;15.40
19644;BMP180;9970;-36.854;174.870;2023-04-24T07:06:07;101421.00;;;15.40
19644;BMP180;9970;-36.854;174.870;2023-04-24T07:08:40;101435.00;;;15.40
19644;BMP180;9970;-36.854;174.870;2023-04-24T07:11:13;101439.00;;;15.40
19644;BMP180;9970;-36.854;174.870;2023-04-24T07:13:45;101438.00;;;15.40
19644;BMP180;9970;-36.854;174.870;2023-04-24T07:16:18;101443.00;;;15.40
19644;BMP180;9970;-36.854;174.870;2023-04-24T07:18:51;101448.00;;;15.40
19644;BMP180;9970;-36.854;174.870;2023-04-24T07:21:24;101450.00;;;15.40
19644;BMP180;9970;-36.854;174.870;2023-04-24T07:23:58;101450.00;;;15.40
19644;BMP180;9970;-36.854;174.870;2023-04-24T07:26:31;101452.00;;;15.40
19644;BMP180;9970;-36.854;174.870;2023-04-24T07:29:04;101455.00;;;15.30
19644;BMP180;9970;-36.854;174.870;2023-04-24T07:31:37;101458.00;;;15.30
19644;BMP180;9970;-36.854;174.870;2023-04-24T07:34:11;101463.00;;;15.30
19644;BMP180;9970;-36.854;174.870;2023-04-24T07:36:44;101471.00;;;15.30
19644;BMP180;9970;-36.854;174.870;2023-04-24T07:39:18;101464.00;;;15.30
19644;BMP180;9970;-36.854;174.870;2023-04-24T07:41:51;101470.00;;;15.30
19644;BMP180;9970;-36.854;174.870;2023-04-24T07:44:24;101482.00;;;15.30
19644;BMP180;9970;-36.854;174.870;2023-04-24T07:46:57;101475.00;;;15.30
19644;BMP180;9970;-36.854;174.870;2023-04-24T07:49:30;101487.00;;;15.30
19644;BMP180;9970;-36.854;174.870;2023-04-24T07:52:05;101483.00;;;15.30
19644;BMP180;9970;-36.854;174.870;2023-04-24T07:54:38;101497.00;;;15.30
19644;BMP180;9970;-36.854;174.870;2023-04-24T07:57:11;101496.00;;;15.20
19644;BMP180;9970;-36.854;174.870;2023-04-24T07:59:45;101496.00;;;15.20
19644;BMP180;9970;-36.854;174.870;2023-04-24T08:02:17;101505.00;;;15.20
19644;BMP180;9970;-36.854;174.870;2023-04-24T08:04:50;101498.00;;;15.20
19644;BMP180;9970;-36.854;174.870;2023-04-24T08:07:26;101506.00;;;15.20
19644;BMP180;9970;-36.854;174.870;2023-04-24T08:09:58;101513.00;;;15.20
19644;BMP180;9970;-36.854;174.870;2023-04-24T08:12:31;101512.00;;;15.20
19644;BMP180;9970;-36.854;174.870;2023-04-24T08:15:05;101508.00;;;15.20
19644;BMP180;9970;-36.854;174.870;2023-04-24T08:17:42;101509.00;;;15.20
19644;BMP180;9970;-36.854;174.870;2023-04-24T08:20:15;101518.00;;;15.20
19644;BMP180;9970;-36.854;174.870;2023-04-24T08:22:48;101519.00;;;15.20
19644;BMP180;9970;-36.854;174.870;2023-04-24T08:25:25;101524.00;;;15.20
19644;BMP180;9970;-36.854;174.870;2023-04-24T08:27:58;101508.00;;;15.20
19644;BMP180;9970;-36.854;174.870;2023-04-24T08:30:31;101526.00;;;15.20
19644;BMP180;9970;-36.854;174.870;2023-04-24T08:33:04;101517.00;;;15.20
19644;BMP180;9970;-36.854;174.870;2023-04-24T08:35:37;101523.00;;;15.20
19644;BMP180;9970;-36.854;174.870;2023-04-24T08:38:11;101521.00;;;15.20
19644;BMP180;9970;-36.854;174.870;2023-04-24T08:40:44;101518.00;;;15.20
19644;BMP180;9970;-36.854;174.870;2023-04-24T08:43:18;101527.00;;;15.20
19644;BMP180;9970;-36.854;174.870;2023-04-24T08:45:53;101541.00;;;15.10
19644;BMP180;9970;-36.854;174.870;2023-04-24T08:48:28;101547.00;;;15.20
19644;BMP180;9970;-36.854;174.870;2023-04-24T08:51:01;101547.00;;;15.20
19644;BMP180;9970;-36.854;174.870;2023-04-24T08:53:35;101554.00;;;15.10
19644;BMP180;9970;-36.854;174.870;2023-04-24T08:56:08;101559.00;;;15.20
19644;BMP180;9970;-36.854;174.870;2023-04-24T08:58:42;101566.00;;;15.10
19644;BMP180;9970;-36.854;174.870;2023-04-24T09:01:16;101572.00;;;15.10
19644;BMP180;9970;-36.854;174.870;2023-04-24T09:03:52;101574.00;;;15.10
19644;BMP180;9970;-36.854;174.870;2023-04-24T09:06:26;101576.00;;;15.10
19644;BMP180;9970;-36.854;174.870;2023-04-24T09:09:01;101577.00;;;15.10
19644;BMP180;9970;-36.854;174.870;2023-04-24T09:11:35;101575.00;;;15.10
19644;BMP180;9970;-36.854;174.870;2023-04-24T09:14:10;101582.00;;;15.10
19644;BMP180;9970;-36.854;174.870;2023-04-24T09:16:42;101576.00;;;15.10
19644;BMP180;9970;-36.854;174.870;2023-04-24T09:19:15;101584.00;;;15.00
19644;BMP180;9970;-36.854;174.870;2023-04-24T09:21:49;101582.00;;;15.00
19644;BMP180;9970;-36.854;174.870;2023-04-24T09:24:22;101597.00;;;14.90
19644;BMP180;9970;-36.854;174.870;2023-04-24T09:26:58;101593.00;;;14.90
19644;BMP180;9970;-36.854;174.870;2023-04-24T09:29:38;101593.00;;;14.80
19644;BMP180;9970;-36.854;174.870;2023-04-24T09:32:21;101599.00;;;14.80
19644;BMP180;9970;-36.854;174.870;2023-04-24T09:35:12;101600.00;;;14.70
19644;BMP180;9970;-36.854;174.870;2023-04-24T09:37:47;101606.00;;;14.70
19644;BMP180;9970;-36.854;174.870;2023-04-24T09:40:22;101604.00;;;14.60
19644;BMP180;9970;-36.854;174.870;2023-04-24T09:42:55;101617.00;;;14.60
19644;BMP180;9970;-36.854;174.870;2023-04-24T09:45:39;101607.00;;;14.60
19644;BMP180;9970;-36.854;174.870;2023-04-24T09:48:12;101615.00;;;14.60
19644;BMP180;9970;-36.854;174.870;2023-04-24T09:50:47;101618.00;;;14.60
19644;BMP180;9970;-36.854;174.870;2023-04-24T09:53:23;101609.00;;;14.60
19644;BMP180;9970;-36.854;174.870;2023-04-24T09:55:55;101607.00;;;14.60
19644;BMP180;9970;-36.854;174.870;2023-04-24T09:58:28;101612.00;;;14.60
19644;BMP180;9970;-36.854;174.870;2023-04-24T10:01:01;101621.00;;;14.60
19644;BMP180;9970;-36.854;174.870;2023-04-24T10:03:35;101620.00;;;14.60
19644;BMP180;9970;-36.854;174.870;2023-04-24T10:06:08;101617.00;;;14.60
19644;BMP180;9970;-36.854;174.870;2023-04-24T10:08:42;101622.00;;;14.70
19644;BMP180;9970;-36.854;174.870;2023-04-24T10:11:16;101626.00;;;14.70
19644;BMP180;9970;-36.854;174.870;2023-04-24T10:13:49;101625.00;;;14.70
19644;BMP180;9970;-36.854;174.870;2023-04-24T10:16:25;101630.00;;;14.70
19644;BMP180;9970;-36.854;174.870;2023-04-24T10:19:00;101634.00;;;14.70
19644;BMP180;9970;-36.854;174.870;2023-04-24T10:21:34;101649.00;;;14.70
19644;BMP180;9970;-36.854;174.870;2023-04-24T10:24:08;101651.00;;;14.70
19644;BMP180;9970;-36.854;174.870;2023-04-24T10:26:41;101646.00;;;14.70
19644;BMP180;9970;-36.854;174.870;2023-04-24T10:29:16;101647.00;;;14.70
19644;BMP180;9970;-36.854;174.870;2023-04-24T10:31:49;101647.00;;;14.60
19644;BMP180;9970;-36.854;174.870;2023-04-24T10:34:23;101652.00;;;14.60
19644;BMP180;9970;-36.854;174.870;2023-04-24T10:36:57;101658.00;;;14.50
19644;BMP180;9970;-36.854;174.870;2023-04-24T10:39:32;101653.00;;;14.50
19644;BMP180;9970;-36.854;174.870;2023-04-24T10:42:16;101656.00;;;14.50
19644;BMP180;9970;-36.854;174.870;2023-04-24T10:44:52;101663.00;;;14.50
19644;BMP180;9970;-36.854;174.870;2023-04-24T10:47:25;101665.00;;;14.50
19644;BMP180;9970;-36.854;174.870;2023-04-24T10:49:59;101664.00;;;14.50
19644;BMP180;9970;-36.854;174.870;2023-04-24T10:52:48;101659.00;;;14.40
19644;BMP180;9970;-36.854;174.870;2023-04-24T10:55:42;101665.00;;;14.30
19644;BMP180;9970;-36.854;174.870;2023-04-24T10:58:15;101659.00;;;14.20
19644;BMP180;9970;-36.854;174.870;2023-04-24T11:00:56;101663.00;;;14.20
19644;BMP180;9970;-36.854;174.870;2023-04-24T11:03:33;101672.00;;;14.10
19644;BMP180;9970;-36.854;174.870;2023-04-24T11:06:10;101670.00;;;14.10
19644;BMP180;9970;-36.854;174.870;2023-04-24T11:08:45;101676.00;;;14.00
19644;BMP180;9970;-36.854;174.870;2023-04-24T11:11:19;101676.00;;;13.90
19644;BMP180;9970;-36.854;174.870;2023-04-24T11:16:35;101670.00;;;13.80
19644;BMP180;9970;-36.854;174.870;2023-04-24T11:22:00;101680.00;;;13.80
19644;BMP180;9970;-36.854;174.870;2023-04-24T11:27:15;101685.00;;;13.60
19644;BMP180;9970;-36.854;174.870;2023-04-24T11:32:34;101693.00;;;13.50
19644;BMP180;9970;-36.854;174.870;2023-04-24T11:35:15;101690.00;;;13.50
19644;BMP180;9970;-36.854;174.870;2023-04-24T11:37:49;101693.00;;;13.50
19644;BMP180;9970;-36.854;174.870;2023-04-24T11:40:24;101699.00;;;13.60
19644;BMP180;9970;-36.854;174.870;2023-04-24T11:42:56;101700.00;;;13.60
19644;BMP180;9970;-36.854;174.870;2023-04-24T11:45:31;101699.00;;;13.50
19644;BMP180;9970;-36.854;174.870;2023-04-24T11:48:11;101698.00;;;13.50
19644;BMP180;9970;-36.854;174.870;2023-04-24T11:50:46;101701.00;;;13.40
19644;BMP180;9970;-36.854;174.870;2023-04-24T11:53:20;101699.00;;;13.40
19644;BMP180;9970;-36.854;174.870;2023-04-24T11:55:52;101700.00;;;13.40
19644;BMP180;9970;-36.854;174.870;2023-04-24T11:58:26;101690.00;;;13.40
19644;BMP180;9970;-36.854;174.870;2023-04-24T12:00:59;101692.00;;;13.40
19644;BMP180;9970;-36.854;174.870;2023-04-24T12:03:32;101691.00;;;13.30
19644;BMP180;9970;-36.854;174.870;2023-04-24T12:06:09;101696.00;;;13.30
19644;BMP180;9970;-36.854;174.870;2023-04-24T12:08:42;101699.00;;;13.20
19644;BMP180;9970;-36.854;174.870;2023-04-24T12:11:17;101693.00;;;13.20
19644;BMP180;9970;-36.854;174.870;2023-04-24T12:13:50;101705.00;;;13.20
19644;BMP180;9970;-36.854;174.870;2023-04-24T12:16:24;101699.00;;;13.10
19644;BMP180;9970;-36.854;174.870;2023-04-24T12:18:58;101691.00;;;13.10
19644;BMP180;9970;-36.854;174.870;2023-04-24T12:21:34;101694.00;;;13.00
19644;BMP180;9970;-36.854;174.870;2023-04-24T12:24:07;101695.00;;;13.00
19644;BMP180;9970;-36.854;174.870;2023-04-24T12:26:42;101695.00;;;12.90
19644;BMP180;9970;-36.854;174.870;2023-04-24T12:29:25;101701.00;;;12.90
19644;BMP180;9970;-36.854;174.870;2023-04-24T12:31:51;101693.00;;;12.90
19644;BMP180;9970;-36.854;174.870;2023-04-24T12:34:25;101694.00;;;12.90
19644;BMP180;9970;-36.854;174.870;2023-04-24T12:37:08;101691.00;;;12.80
19644;BMP180;9970;-36.854;174.870;2023-04-24T12:39:32;101688.00;;;12.80
19644;BMP180;9970;-36.854;174.870;2023-04-24T12:42:05;101693.00;;;12.80
19644;BMP180;9970;-36.854;174.870;2023-04-24T12:44:38;101696.00;;;12.70
19644;BMP180;9970;-36.854;174.870;2023-04-24T12:47:11;101693.00;;;12.70
19644;BMP180;9970;-36.854;174.870;2023-04-24T12:49:45;101699.00;;;12.60
19644;BMP180;9970;-36.854;174.870;2023-04-24T12:52:20;101700.00;;;12.60
19644;BMP180;9970;-36.854;174.870;2023-04-24T12:54:57;101691.00;;;12.60
19644;BMP180;9970;-36.854;174.870;2023-04-24T12:57:31;101695.00;;;12.50
19644;BMP180;9970;-36.854;174.870;2023-04-24T13:00:05;101698.00;;;12.50
19644;BMP180;9970;-36.854;174.870;2023-04-24T13:02:38;101699.00;;;12.50
19644;BMP180;9970;-36.854;174.870;2023-04-24T13:05:11;101699.00;;;12.50
19644;BMP180;9970;-36.854;174.870;2023-04-24T13:07:44;101707.00;;;12.50
19644;BMP180;9970;-36.854;174.870;2023-04-24T13:10:17;101698.00;;;12.50
19644;BMP180;9970;-36.854;174.870;2023-04-24T13:12:50;101702.00;;;12.40
19644;BMP180;9970;-36.854;174.870;2023-04-24T13:15:23;101707.00;;;12.40
19644;BMP180;9970;-36.854;174.870;2023-04-24T13:17:56;101715.00;;;12.40
19644;BMP180;9970;-36.854;174.870;2023-04-24T13:20:29;101724.00;;;12.30
19644;BMP180;9970;-36.854;174.870;2023-04-24T13:23:02;101719.00;;;12.30
19644;BMP180;9970;-36.854;174.870;2023-04-24T13:25:36;101706.00;;;12.30
19644;BMP180;9970;-36.854;174.870;2023-04-24T13:28:10;101717.00;;;12.30
19644;BMP180;9970;-36.854;174.870;2023-04-24T13:30:43;101715.00;;;12.20
19644;BMP180;9970;-36.854;174.870;2023-04-24T13:33:17;101710.00;;;12.20
19644;BMP180;9970;-36.854;174.870;2023-04-24T13:35:50;101716.00;;;12.20
19644;BMP180;9970;-36.854;174.870;2023-04-24T13:38:23;101712.00;;;12.20
19644;BMP180;9970;-36.854;174.870;2023-04-24T13:40:56;101714.00;;;12.20
19644;BMP180;9970;-36.854;174.870;2023-04-24T13:43:29;101719.00;;;12.10
19644;BMP180;9970;-36.854;174.870;2023-04-24T13:46:03;101716.00;;;12.10
19644;BMP180;9970;-36.854;174.870;2023-04-24T13:48:36;101718.00;;;12.10
19644;BMP180;9970;-36.854;174.870;2023-04-24T13:51:09;101722.00;;;12.10
19644;BMP180;9970;-36.854;174.870;2023-04-24T13:53:42;101719.00;;;12.10
19644;BMP180;9970;-36.854;174.870;2023-04-24T13:56:16;101719.00;;;12.10
19644;BMP180;9970;-36.854;174.870;2023-04-24T13:58:49;101715.00;;;12.10
19644;BMP180;9970;-36.854;174.870;2023-04-24T14:01:23;101723.00;;;12.10
19644;BMP180;9970;-36.854;174.870;2023-04-24T14:03:56;101707.00;;;12.00
19644;BMP180;9970;-36.854;174.870;2023-04-24T14:06:30;101720.00;;;12.00
19644;BMP180;9970;-36.854;174.870;2023-04-24T14:09:03;101717.00;;;12.00
19644;BMP180;9970;-36.854;174.870;2023-04-24T14:11:35;101721.00;;;12.00
19644;BMP180;9970;-36.854;174.870;2023-04-24T14:14:09;101722.00;;;11.90
19644;BMP180;9970;-36.854;174.870;2023-04-24T14:16:42;101716.00;;;11.90
19644;BMP180;9970;-36.854;174.870;2023-04-24T14:19:15;101703.00;;;11.90